Time;durP1;ratioP1;P1;durP2;ratioP2;P2;SDS_P1;SDS_P2;PMS_P1;PMS_P2;Temp;Humidity;BMP_temperature;BMP_pressure;BME280_temperature;BME280_humidity;BME280_pressure;Samples;Min_cycle;Max_cycle;Signal;HPM_P1;HPM_P2
2021/12/07 10:39:37;;;;;;;1.37;1.27;;;;;;;4.91;99.06;98492.81;5119430;27;20563;-80
2021/12/07 10:42:09;;;;;;;1.20;1.10;;;;;;;5.30;99.85;98500.63;5083993;28;38899;-81
2021/12/07 10:44:39;;;;;;;2.90;1.00;;;;;;;5.70;95.60;98519.72;5065137;28;42398;-84
2021/12/07 10:47:08;;;;;;;1.30;0.90;;;;;;;5.99;91.40;98516.56;5065640;28;42995;-81
2021/12/07 10:49:43;;;;;;;0.80;0.80;;;;;;;6.22;87.45;98523.31;5052488;28;41215;-79
2021/12/07 10:52:21;;;;;;;0.70;0.67;;;;;;;6.43;85.27;98506.41;5085911;28;39384;-79
2021/12/07 10:55:03;;;;;;;0.80;0.80;;;;;;;6.57;82.38;98496.97;5086699;28;41741;-81
2021/12/07 10:57:34;;;;;;;1.00;0.77;;;;;;;6.71;80.46;98516.38;5086007;28;42749;-78
2021/12/07 11:00:08;;;;;;;1.23;0.83;;;;;;;6.79;79.15;98503.69;5069025;28;40530;-79
2021/12/07 11:02:38;;;;;;;1.07;1.03;;;;;;;6.85;78.60;98503.34;5068455;28;38796;-80
2021/12/07 11:05:09;;;;;;;1.57;1.10;;;;;;;6.90;77.34;98520.69;5068872;28;40641;-81
2021/12/07 11:07:37;;;;;;;1.23;0.80;;;;;;;6.92;77.34;98510.94;5086056;28;41375;-81
2021/12/07 11:10:14;;;;;;;3.43;1.37;;;;;;;6.89;75.70;98522.47;5069735;28;40948;-80
2021/12/07 11:12:48;;;;;;;2.60;0.80;;;;;;;6.76;75.99;98500.34;5085431;28;38938;-81
2021/12/07 11:15:31;;;;;;;0.63;0.63;;;;;;;6.87;75.80;98494.53;5085078;28;41897;-80
2021/12/07 11:18:02;;;;;;;2.30;1.07;;;;;;;6.89;75.51;98509.31;5086339;28;41689;-82
2021/12/07 11:20:31;;;;;;;2.13;0.80;;;;;;;6.77;75.61;98489.75;5085253;28;42518;-81
2021/12/07 11:23:01;;;;;;;1.10;0.97;;;;;;;6.90;75.39;98512.78;5086502;28;38726;-81
2021/12/07 11:29:39;;;;;;;1.50;0.73;;;;;;;6.87;76.01;98500.63;5068658;28;40929;-80
2021/12/07 11:31:32;;;;;;;2.43;0.83;;;;;;;6.61;76.21;98504.63;5063021;28;41268;-79
2021/12/07 11:34:07;;;;;;;0.93;0.73;;;;;;;6.60;76.39;98497.66;5048839;28;39023;-81
2021/12/07 11:36:36;;;;;;;2.73;1.00;;;;;;;6.73;77.10;98514.53;5068243;28;40607;-81
2021/12/07 11:39:19;;;;;;;1.40;1.07;;;;;;;6.86;76.79;98525.25;5086056;28;42808;-81
2021/12/07 11:41:53;;;;;;;1.33;0.97;;;;;;;6.82;76.41;98514.03;5098913;28;42236;-82
2021/12/07 11:44:22;;;;;;;0.97;0.90;;;;;;;7.02;76.60;98514.78;5049117;28;39265;-80
2021/12/07 11:46:51;;;;;;;1.70;1.07;;;;;;;7.03;76.43;98516.47;5068550;28;42253;-83
2021/12/07 11:49:22;;;;;;;1.80;0.80;;;;;;;7.29;75.41;98523.81;5081631;28;42871;-80
2021/12/07 11:51:52;;;;;;;2.00;0.90;;;;;;;7.44;75.54;98517.69;5070553;28;40839;-83
2021/12/07 11:54:23;;;;;;;0.83;0.83;;;;;;;7.39;73.64;98482.88;5071132;28;40034;-83
2021/12/07 11:56:53;;;;;;;1.53;0.90;;;;;;;7.73;73.00;98525.75;5055312;28;41060;-81
2021/12/07 11:59:20;;;;;;;0.80;0.80;;;;;;;7.89;72.40;98524.81;5070456;28;43253;-81
2021/12/07 12:01:49;;;;;;;1.07;0.90;;;;;;;8.13;72.74;98512.00;5072036;28;41323;-83
2021/12/07 12:04:20;;;;;;;1.20;1.10;;;;;;;8.24;71.48;98493.75;5053466;28;38880;-80
2021/12/07 12:06:49;;;;;;;1.13;1.03;;;;;;;8.78;70.70;98515.16;5072293;28;40583;-80
2021/12/07 12:09:18;;;;;;;1.03;0.80;;;;;;;9.61;67.21;98522.31;5052180;28;41846;-81
2021/12/07 12:11:56;;;;;;;0.87;0.83;;;;;;;9.65;65.61;98526.44;5070821;28;41919;-82
2021/12/07 12:14:45;;;;;;;1.93;1.03;;;;;;;10.82;64.22;98520.44;5054189;28;39673;-82
2021/12/07 12:17:18;;;;;;;0.83;0.83;;;;;;;12.43;61.27;98548.59;5053124;28;41096;-82
2021/12/07 12:20:13;;;;;;;2.23;1.00;;;;;;;13.25;57.91;98542.25;5055521;28;43743;-82
2021/12/07 12:22:46;;;;;;;1.70;0.90;;;;;;;12.20;57.35;98552.94;5071224;28;41447;-84
2021/12/07 12:25:17;;;;;;;2.90;1.17;;;;;;;11.35;58.55;98537.06;5054647;28;39951;-83
2021/12/07 12:27:49;;;;;;;2.83;1.20;;;;;;;10.57;59.84;98525.72;5071019;28;42717;-84
2021/12/07 12:30:22;;;;;;;4.07;1.10;;;;;;;10.01;60.16;98525.03;5070021;28;41785;-83
2021/12/07 12:32:54;;;;;;;0.97;0.97;;;;;;;9.81;62.17;98518.38;5071053;28;40451;-83
2021/12/07 12:35:29;;;;;;;1.00;0.90;;;;;;;9.46;63.38;98510.06;5068981;28;39515;-80
2021/12/07 12:37:57;;;;;;;1.97;1.20;;;;;;;9.24;62.32;98512.38;5053361;28;40387;-84
2021/12/07 12:40:30;;;;;;;1.33;1.07;;;;;;;9.10;62.90;98500.00;5070112;28;42863;-81
2021/12/07 12:43:02;;;;;;;2.33;0.87;;;;;;;8.99;62.88;98508.59;5071825;28;42243;-83
2021/12/07 12:45:34;;;;;;;2.40;1.37;;;;;;;9.07;63.30;98504.63;5053623;28;39246;-80
2021/12/07 12:48:04;;;;;;;1.03;1.00;;;;;;;9.20;63.18;98501.13;5050117;28;40652;-82
2021/12/07 12:50:35;;;;;;;0.87;0.87;;;;;;;9.72;61.92;98488.09;5050930;28;43340;-84
2021/12/07 12:53:05;;;;;;;1.03;1.00;;;;;;;9.68;61.52;98502.44;5034081;28;42677;-85
2021/12/07 12:55:41;;;;;;;4.97;1.10;;;;;;;9.43;62.48;98497.03;5033393;28;40257;-80
2021/12/07 12:58:15;;;;;;;1.83;1.33;;;;;;;9.13;61.14;98493.69;5068492;28;41717;-81
2021/12/07 13:01:10;;;;;;;1.60;1.00;;;;;;;9.12;62.17;98487.56;5049334;28;41620;-83
2021/12/07 13:04:04;;;;;;;3.67;1.40;;;;;;;9.13;61.78;98491.06;5046382;28;41354;-81
2021/12/07 13:06:54;;;;;;;1.13;0.97;;;;;;;9.36;61.66;98485.16;5035622;28;39001;-81
2021/12/07 13:09:29;;;;;;;1.60;0.90;;;;;;;9.47;60.64;98497.69;5051843;28;41053;-81
2021/12/07 13:11:58;;;;;;;2.40;1.30;;;;;;;9.40;60.66;98494.56;5045146;28;43216;-83
2021/12/07 13:14:34;;;;;;;0.70;0.70;;;;;;;9.39;59.70;98490.25;5066833;28;43340;-83
2021/12/07 13:17:08;;;;;;;2.03;0.90;;;;;;;9.24;60.19;98491.22;5068752;28;39989;-81
2021/12/07 13:20:08;;;;;;;0.90;0.70;;;;;;;9.19;59.46;98504.72;5068352;28;41884;-82
2021/12/07 13:22:39;;;;;;;2.87;1.00;;;;;;;9.10;60.16;98493.88;5068469;28;42941;-80
2021/12/07 13:25:10;;;;;;;2.47;0.73;;;;;;;8.91;59.82;98491.50;5069130;28;41215;-82
2021/12/07 13:27:38;;;;;;;3.60;0.60;;;;;;;8.90;60.67;98493.31;5049188;28;38886;-82
2021/12/07 13:30:08;;;;;;;0.70;0.70;;;;;;;8.83;60.67;98488.50;5052561;28;42057;-84
2021/12/07 13:32:36;;;;;;;1.73;1.23;;;;;;;8.58;60.74;98478.59;5068824;28;41559;-81
2021/12/07 13:35:07;;;;;;;1.80;0.53;;;;;;;8.42;61.14;98486.56;5069130;28;42104;-82
2021/12/07 13:37:46;;;;;;;1.73;1.00;;;;;;;8.10;62.54;98467.34;5069634;28;39883;-85
2021/12/07 13:40:22;;;;;;;1.20;0.87;;;;;;;7.89;63.08;98453.63;5068226;28;41758;-84
2021/12/07 13:42:54;;;;;;;1.27;0.80;;;;;;;7.80;63.23;98474.38;5039166;28;41678;-83
2021/12/07 13:45:25;;;;;;;0.70;0.70;;;;;;;7.64;64.04;98471.78;5068636;28;42554;-86
2021/12/07 13:47:53;;;;;;;0.60;0.60;;;;;;;7.45;63.73;98465.84;5069401;28;39222;-84
2021/12/07 13:50:26;;;;;;;1.40;0.90;;;;;;;7.32;64.70;98459.56;5051930;28;42176;-85
2021/12/07 13:52:56;;;;;;;1.10;0.70;;;;;;;7.19;63.91;98472.56;5052872;28;42389;-83
2021/12/07 13:55:28;;;;;;;0.80;0.70;;;;;;;6.95;64.58;98447.56;5051061;28;41301;-83
2021/12/07 13:57:59;;;;;;;1.10;1.00;;;;;;;6.97;64.94;98461.50;5069834;28;39936;-82
2021/12/07 14:00:31;;;;;;;1.17;0.70;;;;;;;6.92;65.09;98456.50;5052063;28;40804;-81
2021/12/07 14:03:01;;;;;;;0.60;0.60;;;;;;;6.79;65.70;98445.78;5069572;28;41871;-83
2021/12/07 14:05:32;;;;;;;2.80;0.93;;;;;;;6.79;66.21;98448.41;5077346;28;42162;-82
2021/12/07 14:08:04;;;;;;;1.63;0.80;;;;;;;6.82;66.44;98456.13;5087218;28;40192;-81
2021/12/07 14:10:35;;;;;;;1.33;0.80;;;;;;;6.67;66.89;98433.28;5072080;28;41269;-83
2021/12/07 14:13:05;;;;;;;4.37;0.80;;;;;;;6.75;67.16;98443.38;5069938;28;42370;-80
2021/12/07 14:15:42;;;;;;;2.50;1.03;;;;;;;6.52;67.28;98396.41;5088925;28;42183;-82
2021/12/07 14:18:13;;;;;;;2.20;0.87;;;;;;;7.00;67.03;98458.72;5073162;28;38818;-82
2021/12/07 14:20:43;;;;;;;0.83;0.70;;;;;;;7.12;67.01;98464.16;5055030;28;41037;-82
2021/12/07 14:23:18;;;;;;;0.60;0.60;;;;;;;7.18;66.97;98450.63;5051291;28;42196;-84
2021/12/07 14:25:48;;;;;;;1.37;1.00;;;;;;;7.17;67.13;98450.75;5052690;28;41288;-84
2021/12/07 14:28:25;;;;;;;2.63;1.07;;;;;;;7.15;66.80;98452.63;5069987;28;39877;-84
2021/12/07 14:30:58;;;;;;;3.97;1.23;;;;;;;7.04;67.05;98428.66;5036999;28;41274;-85
2021/12/07 14:33:25;;;;;;;3.63;1.07;;;;;;;7.11;66.88;98445.81;5067693;28;42057;-81
2021/12/07 14:35:53;;;;;;;1.20;0.83;;;;;;;7.23;66.92;98447.75;5051832;28;41212;-81
2021/12/07 14:38:22;;;;;;;0.70;0.53;;;;;;;7.28;66.23;98464.16;5067949;28;38918;-82
2021/12/07 14:40:50;;;;;;;0.80;0.77;;;;;;;7.17;66.41;98461.28;5066346;28;42056;-81
2021/12/07 14:43:18;;;;;;;1.63;0.93;;;;;;;7.02;66.30;98462.13;5066966;28;43806;-81
2021/12/07 14:45:46;;;;;;;0.67;0.60;;;;;;;6.77;66.66;98447.66;5052280;28;42203;-81
2021/12/07 14:48:16;;;;;;;5.00;1.03;;;;;;;6.67;67.03;98458.75;5068330;28;39962;-84
2021/12/07 14:50:44;;;;;;;0.83;0.70;;;;;;;6.40;66.60;98438.22;5066434;28;41825;-81
2021/12/07 14:53:12;;;;;;;0.83;0.83;;;;;;;6.35;67.34;98445.50;5067776;28;41293;-82
2021/12/07 14:55:39;;;;;;;2.40;1.30;;;;;;;6.18;67.40;98431.53;5067405;28;42496;-82
2021/12/07 14:58:07;;;;;;;2.90;0.73;;;;;;;6.18;67.51;98435.00;5051485;28;38960;-82
2021/12/07 15:00:35;;;;;;;0.90;0.70;;;;;;;6.02;67.60;98416.53;5034773;28;40842;-81
2021/12/07 15:03:03;;;;;;;0.60;0.60;;;;;;;6.02;68.01;98432.31;5070452;28;42736;-81
2021/12/07 15:05:33;;;;;;;2.37;0.70;;;;;;;5.93;68.63;98430.16;5067265;28;42642;-81
2021/12/07 15:08:01;;;;;;;1.20;0.70;;;;;;;5.81;68.63;98427.25;5068316;28;40543;-82
2021/12/07 15:10:28;;;;;;;1.07;0.97;;;;;;;5.34;68.82;98360.38;5066874;28;41709;-82
2021/12/07 15:12:56;;;;;;;0.70;0.60;;;;;;;5.63;69.30;98397.50;5067600;28;42859;-84
2021/12/07 15:15:27;;;;;;;1.37;0.80;;;;;;;5.53;69.71;98391.00;5051211;28;41252;-83
2021/12/07 15:17:54;;;;;;;1.73;1.03;;;;;;;5.61;70.15;98409.84;5051479;28;39048;-82
2021/12/07 15:20:22;;;;;;;2.30;0.90;;;;;;;5.54;69.89;98400.59;5049800;28;40898;-84
2021/12/07 15:22:53;;;;;;;1.50;0.60;;;;;;;5.37;70.35;98386.50;5051478;28;43157;-84
2021/12/07 15:25:21;;;;;;;0.97;0.97;;;;;;;5.39;70.38;98399.56;5068994;28;42443;-82
2021/12/07 15:27:53;;;;;;;1.67;1.27;;;;;;;5.26;70.96;98394.06;5071927;28;40154;-82
